Terminal Aerodrome Forecast
Issued by NWS Wilmington, OH

Current Version | Previous Version | Graphics & Text | Print | Product List | Glossary On
Versions: 1 2 3 4 5 6 7 8 9 10 11 12 13 14 15 16 17 18 19 20 21 22 23 24 25 26 27 28 29 30 31 32
000
FTUS41 KILN 162100 AAB
TAFCVG
TAF AMD
KCVG 162103Z 1621/1724 20009KT P6SM VCTS BKN040CB
      TEMPO 1621/1701 5SM -SHRA OVC025
     FM170100 20005KT 4SM BR VCSH OVC015
     FM170500 23005KT 2SM BR OVC008
     FM171300 31006KT P6SM SCT025
     FM171600 35008KT P6SM SKC=

USA.gov is the U.S. government's official web portal to all federal, state and local government web resources and services.